createdAt,value
2024-03-02T00:00:21.432Z,84
2024-03-02T00:02:22.378Z,84
2024-03-02T00:04:23.344Z,84
2024-03-02T00:06:24.730Z,84
2024-03-02T00:08:25.404Z,84
2024-03-02T00:10:26.370Z,84
2024-03-02T00:12:27.364Z,84
2024-03-02T00:14:28.537Z,84
2024-03-02T00:16:29.661Z,84
2024-03-02T00:18:30.440Z,84
2024-03-02T00:20:31.759Z,85
2024-03-02T00:22:32.396Z,85
2024-03-02T00:24:33.631Z,85
2024-03-02T00:26:34.329Z,85
2024-03-02T00:28:35.724Z,85
2024-03-02T00:30:36.342Z,85
2024-03-02T00:32:37.345Z,85
2024-03-02T00:34:38.388Z,85
2024-03-02T00:36:39.388Z,85
2024-03-02T00:38:40.378Z,85
2024-03-02T00:40:41.349Z,85
2024-03-02T00:42:42.321Z,85
2024-03-02T00:44:43.365Z,85
2024-03-02T00:46:44.406Z,85
2024-03-02T00:48:45.371Z,85
2024-03-02T00:50:46.385Z,85
2024-03-02T00:52:47.289Z,85
2024-03-02T00:54:48.386Z,85
2024-03-02T00:56:49.327Z,85
2024-03-02T00:58:50.363Z,85
2024-03-02T01:00:51.376Z,85
2024-03-02T01:02:52.420Z,85
2024-03-02T01:04:53.372Z,85
2024-03-02T01:06:54.415Z,85
2024-03-02T01:08:55.398Z,85
2024-03-02T01:10:56.363Z,85
2024-03-02T01:12:57.396Z,85
2024-03-02T01:14:58.334Z,85
2024-03-02T01:16:59.620Z,85
2024-03-02T01:19:00.451Z,85
2024-03-02T01:21:01.310Z,85
2024-03-02T01:23:02.337Z,85
2024-03-02T01:25:03.435Z,85
2024-03-02T01:27:04.299Z,85
2024-03-02T01:29:05.288Z,85
2024-03-02T01:31:06.358Z,85
2024-03-02T01:33:07.359Z,85
2024-03-02T01:35:08.327Z,85
2024-03-02T01:37:09.320Z,85
2024-03-02T01:39:10.423Z,85
2024-03-02T01:41:11.386Z,85
2024-03-02T01:43:12.310Z,85
2024-03-02T01:45:13.368Z,85
2024-03-02T01:47:14.329Z,85
2024-03-02T01:49:15.355Z,85
2024-03-02T01:51:16.386Z,85
2024-03-02T01:53:17.348Z,85
2024-03-02T01:55:18.242Z,85
2024-03-02T01:57:19.370Z,85
2024-03-02T01:59:20.763Z,85
2024-03-02T02:01:21.350Z,85
2024-03-02T02:03:22.314Z,85
2024-03-02T02:05:23.329Z,85
2024-03-02T02:07:24.365Z,85
2024-03-02T02:09:25.307Z,85
2024-03-02T02:11:26.539Z,85
2024-03-02T02:13:27.343Z,85
2024-03-02T02:15:28.506Z,85
2024-03-02T02:17:29.400Z,85
2024-03-02T02:19:30.282Z,85
2024-03-02T02:21:31.284Z,85
2024-03-02T02:23:32.341Z,85
2024-03-02T02:25:33.335Z,85
2024-03-02T02:27:34.560Z,85
2024-03-02T02:29:35.322Z,85
2024-03-02T02:31:36.293Z,85
2024-03-02T02:33:37.371Z,85
2024-03-02T02:35:38.367Z,85
2024-03-02T02:37:39.402Z,85
2024-03-02T02:39:40.327Z,85
2024-03-02T02:41:41.345Z,85
2024-03-02T02:43:42.296Z,85
2024-03-02T02:45:43.338Z,85
2024-03-02T02:47:44.489Z,85
2024-03-02T02:49:45.373Z,85
2024-03-02T02:51:46.355Z,85
2024-03-02T02:53:47.288Z,85
2024-03-02T02:55:48.361Z,86
2024-03-02T02:57:49.408Z,86
2024-03-02T02:59:50.356Z,86
2024-03-02T03:01:51.330Z,86
2024-03-02T03:03:52.388Z,86
2024-03-02T03:05:53.345Z,86
2024-03-02T03:07:54.255Z,86
2024-03-02T03:09:55.327Z,86
2024-03-02T03:11:56.444Z,86
2024-03-02T03:13:57.413Z,86
2024-03-02T03:15:58.448Z,86
2024-03-02T03:17:59.452Z,86
2024-03-02T03:20:00.352Z,86
2024-03-02T03:22:01.328Z,86
2024-03-02T03:24:02.263Z,86
2024-03-02T03:26:03.353Z,86
2024-03-02T03:28:04.407Z,86
2024-03-02T03:30:05.327Z,86
2024-03-02T03:32:06.397Z,86
2024-03-02T03:34:07.343Z,86
2024-03-02T03:36:08.327Z,86
2024-03-02T03:38:09.406Z,86
2024-03-02T03:40:10.268Z,86
2024-03-02T03:42:11.281Z,86
2024-03-02T03:44:12.426Z,86
2024-03-02T03:46:13.286Z,86
2024-03-02T03:48:14.813Z,86
2024-03-02T03:50:15.287Z,86
2024-03-02T03:52:16.270Z,86
2024-03-02T03:54:17.296Z,86
2024-03-02T03:56:18.342Z,86
2024-03-02T03:58:21.406Z,86
2024-03-02T04:00:20.335Z,86
2024-03-02T04:02:21.304Z,86
2024-03-02T04:04:22.307Z,86
2024-03-02T04:06:23.312Z,86
2024-03-02T04:08:24.328Z,86
2024-03-02T04:10:25.784Z,86
2024-03-02T04:12:26.236Z,86
2024-03-02T04:14:27.527Z,86
2024-03-02T04:16:28.268Z,86
2024-03-02T04:18:29.354Z,87
2024-03-02T04:20:30.313Z,87
2024-03-02T04:22:31.333Z,87
2024-03-02T04:24:32.321Z,87
2024-03-02T04:26:33.208Z,87
2024-03-02T04:28:34.261Z,87
2024-03-02T04:30:35.389Z,87
2024-03-02T04:32:36.351Z,87
2024-03-02T04:34:37.393Z,87
2024-03-02T04:36:38.371Z,87
2024-03-02T04:38:39.370Z,87
2024-03-02T04:40:40.284Z,87
2024-03-02T04:42:41.373Z,87
2024-03-02T04:44:42.334Z,87
2024-03-02T04:46:43.249Z,87
2024-03-02T04:48:44.711Z,87
2024-03-02T04:50:45.270Z,87
2024-03-02T04:52:46.287Z,87
2024-03-02T04:54:47.399Z,87
2024-03-02T04:56:48.290Z,87
2024-03-02T04:58:49.338Z,87
2024-03-02T05:00:50.463Z,87
2024-03-02T05:02:51.225Z,87
2024-03-02T05:04:52.328Z,87
2024-03-02T05:06:53.329Z,87
2024-03-02T05:08:54.336Z,87
2024-03-02T05:10:55.354Z,87
2024-03-02T05:12:56.229Z,87
2024-03-02T05:14:57.296Z,87
2024-03-02T05:16:58.300Z,87
2024-03-02T05:18:59.313Z,87
2024-03-02T05:21:00.327Z,87
2024-03-02T05:23:01.279Z,87
2024-03-02T05:25:02.513Z,87
2024-03-02T05:27:03.340Z,87
2024-03-02T05:29:04.255Z,87
2024-03-02T05:31:05.261Z,87
2024-03-02T05:33:06.315Z,87
2024-03-02T05:35:07.223Z,87
2024-03-02T05:37:08.329Z,87
2024-03-02T05:39:09.521Z,87
2024-03-02T05:41:10.295Z,87
2024-03-02T05:43:11.297Z,87
2024-03-02T05:45:12.400Z,87
2024-03-02T05:47:13.295Z,87
2024-03-02T05:49:14.494Z,87
2024-03-02T05:51:15.241Z,87
2024-03-02T05:53:16.306Z,87
2024-03-02T05:55:17.298Z,87
2024-03-02T05:57:18.599Z,87
2024-03-02T05:59:19.267Z,87
2024-03-02T06:01:20.337Z,87
2024-03-02T06:03:21.326Z,87
2024-03-02T06:05:22.330Z,87
2024-03-02T06:07:23.370Z,87
2024-03-02T06:09:24.255Z,87
2024-03-02T06:11:25.359Z,87
2024-03-02T06:13:26.266Z,87
2024-03-02T06:15:27.283Z,87
2024-03-02T06:17:28.283Z,87
2024-03-02T06:19:29.291Z,87
2024-03-02T06:21:30.408Z,87
2024-03-02T06:23:31.226Z,87
2024-03-02T06:25:32.272Z,87
2024-03-02T06:27:33.257Z,87
2024-03-02T06:29:34.291Z,87
2024-03-02T06:31:35.294Z,87
2024-03-02T06:33:36.655Z,87
2024-03-02T06:35:37.303Z,87
2024-03-02T06:37:38.289Z,87
2024-03-02T06:39:39.441Z,87
2024-03-02T06:41:40.331Z,87
2024-03-02T06:43:41.254Z,87
2024-03-02T06:45:42.270Z,87
2024-03-02T06:47:43.390Z,87
2024-03-02T06:49:44.254Z,87
2024-03-02T06:51:45.397Z,87
2024-03-02T06:53:46.214Z,87
2024-03-02T06:55:47.256Z,87
2024-03-02T06:57:48.276Z,87
2024-03-02T06:59:49.181Z,87
2024-03-02T07:01:50.244Z,87
2024-03-02T07:03:51.299Z,87
2024-03-02T07:05:52.182Z,87
2024-03-02T07:07:53.198Z,87
2024-03-02T07:09:54.274Z,87
2024-03-02T07:11:55.323Z,87
2024-03-02T07:13:56.208Z,87
2024-03-02T07:15:57.262Z,87
2024-03-02T07:17:58.324Z,87
2024-03-02T07:19:59.569Z,87
2024-03-02T07:22:00.321Z,87
2024-03-02T07:24:01.246Z,87
2024-03-02T07:28:03.228Z,87
2024-03-02T07:30:04.308Z,87
2024-03-02T07:32:05.353Z,87
2024-03-02T07:34:06.294Z,87
2024-03-02T07:36:07.232Z,87
2024-03-02T07:38:08.438Z,86
2024-03-02T07:40:09.313Z,86
2024-03-02T07:42:10.242Z,86
2024-03-02T07:44:11.411Z,86
2024-03-02T07:46:12.250Z,86
2024-03-02T07:48:13.189Z,86
2024-03-02T07:50:14.229Z,86
2024-03-02T07:52:15.291Z,86
2024-03-02T07:54:16.196Z,86
2024-03-02T07:56:17.282Z,86
2024-03-02T07:58:18.183Z,86
2024-03-02T08:00:19.276Z,86
2024-03-02T08:02:20.316Z,86
2024-03-02T08:04:21.218Z,85
2024-03-02T08:06:22.523Z,85
2024-03-02T08:08:23.239Z,85
2024-03-02T08:10:24.223Z,85
2024-03-02T08:12:25.316Z,85
2024-03-02T08:14:26.182Z,85
2024-03-02T08:16:27.227Z,85
2024-03-02T08:18:28.321Z,85
2024-03-02T08:20:29.637Z,85
2024-03-02T08:22:30.212Z,85
2024-03-02T08:24:31.533Z,85
2024-03-02T08:26:32.254Z,85
2024-03-02T08:28:33.290Z,85
2024-03-02T08:30:34.314Z,85
2024-03-02T08:32:35.363Z,85
2024-03-02T08:34:36.256Z,85
2024-03-02T08:36:37.284Z,85
2024-03-02T08:38:38.142Z,85
2024-03-02T08:40:39.181Z,85
2024-03-02T08:42:40.427Z,85
2024-03-02T08:44:41.306Z,85
2024-03-02T08:46:42.242Z,85
2024-03-02T08:48:43.265Z,85
2024-03-02T08:50:44.164Z,85
2024-03-02T08:52:45.226Z,85
2024-03-02T08:54:46.304Z,84
2024-03-02T08:56:47.146Z,84
2024-03-02T08:58:48.213Z,84
2024-03-02T09:00:49.267Z,84
2024-03-02T09:02:50.251Z,84
2024-03-02T09:04:51.270Z,83
2024-03-02T09:06:52.285Z,83
2024-03-02T09:08:53.208Z,82
2024-03-02T09:10:54.261Z,82
2024-03-02T09:12:56.309Z,81
2024-03-02T09:14:56.166Z,81
2024-03-02T09:16:57.222Z,80
2024-03-02T09:18:58.135Z,80
2024-03-02T09:20:59.253Z,79
2024-03-02T09:23:00.281Z,78
2024-03-02T09:25:01.301Z,78
2024-03-02T09:27:02.519Z,77
2024-03-02T09:29:03.209Z,76
2024-03-02T09:31:04.213Z,76
2024-03-02T09:35:06.287Z,75
2024-03-02T09:37:07.263Z,75
2024-03-02T09:39:08.223Z,75
2024-03-02T09:41:09.213Z,75
2024-03-02T09:43:10.235Z,74
2024-03-02T09:45:11.455Z,74
2024-03-02T09:47:12.209Z,74
2024-03-02T09:49:13.352Z,74
2024-03-02T09:51:14.175Z,74
2024-03-02T09:53:15.241Z,74
2024-03-02T09:55:16.177Z,74
2024-03-02T09:57:17.182Z,73
2024-03-02T09:59:18.188Z,73
2024-03-02T10:01:19.320Z,73
2024-03-02T10:03:20.276Z,73
2024-03-02T10:05:21.123Z,73
2024-03-02T10:07:22.228Z,73
2024-03-02T10:09:23.116Z,73
2024-03-02T10:11:24.265Z,73
2024-03-02T10:13:25.371Z,73
2024-03-02T10:15:26.238Z,73
2024-03-02T10:17:27.162Z,74
2024-03-02T10:19:28.174Z,74
2024-03-02T10:21:29.245Z,74
2024-03-02T10:23:30.398Z,74
2024-03-02T10:25:36.685Z,73
2024-03-02T10:27:32.229Z,73
2024-03-02T10:29:33.203Z,72
2024-03-02T10:31:34.247Z,71
2024-03-02T10:33:35.185Z,70
2024-03-02T10:35:36.175Z,69
2024-03-02T10:37:37.170Z,68
2024-03-02T10:39:38.201Z,68
2024-03-02T10:41:39.198Z,67
2024-03-02T10:43:40.124Z,66
2024-03-02T10:45:41.154Z,65
2024-03-02T10:47:42.207Z,64
2024-03-02T10:49:43.217Z,61
2024-03-02T10:51:44.237Z,59
2024-03-02T10:53:45.117Z,57
2024-03-02T10:55:46.215Z,56
2024-03-02T10:57:47.197Z,55
2024-03-02T10:59:48.219Z,55
2024-03-02T11:01:49.319Z,56
2024-03-02T11:03:50.197Z,56
2024-03-02T11:05:51.111Z,57
2024-03-02T11:07:52.118Z,58
2024-03-02T11:09:53.169Z,59
2024-03-02T11:11:54.151Z,59
2024-03-02T11:13:55.153Z,59
2024-03-02T11:15:56.136Z,59
2024-03-02T11:17:57.101Z,59
2024-03-02T11:19:58.102Z,58
2024-03-02T11:21:59.177Z,58
2024-03-02T11:24:00.204Z,57
2024-03-02T11:26:01.125Z,56
2024-03-02T11:28:02.408Z,56
2024-03-02T11:30:03.126Z,55
2024-03-02T11:32:04.113Z,55
2024-03-02T11:34:05.122Z,55
2024-03-02T11:36:07.118Z,56
2024-03-02T11:38:07.221Z,56
2024-03-02T11:40:08.220Z,56
2024-03-02T11:42:09.072Z,57
2024-03-02T11:44:10.107Z,57
2024-03-02T11:46:11.572Z,58
2024-03-02T11:48:12.105Z,59
2024-03-02T11:50:13.100Z,61
2024-03-02T11:52:14.109Z,63
2024-03-02T11:54:15.103Z,64
2024-03-02T11:56:16.076Z,66
2024-03-02T11:58:17.129Z,67
2024-03-02T12:00:18.127Z,67
2024-03-02T12:02:19.095Z,68
2024-03-02T12:04:20.065Z,69
2024-03-02T12:06:21.343Z,69
2024-03-02T12:08:22.477Z,70
2024-03-02T12:10:23.238Z,70
2024-03-02T12:12:24.122Z,70
2024-03-02T12:14:25.551Z,70
2024-03-02T12:16:26.070Z,69
2024-03-02T12:18:27.434Z,69
2024-03-02T12:20:28.049Z,69
2024-03-02T12:22:29.128Z,69
2024-03-02T12:24:30.098Z,69
2024-03-02T12:26:31.143Z,69
2024-03-02T12:28:32.587Z,68
2024-03-02T12:30:33.559Z,68
2024-03-02T12:32:34.094Z,68
2024-03-02T12:34:35.143Z,68
2024-03-02T12:36:36.048Z,69
2024-03-02T12:38:37.125Z,69
2024-03-02T12:40:38.100Z,69
2024-03-02T12:42:39.153Z,70
2024-03-02T12:44:40.143Z,70
2024-03-02T12:46:41.101Z,70
2024-03-02T12:48:42.160Z,70
2024-03-02T12:50:43.116Z,70
2024-03-02T12:52:44.110Z,70
2024-03-02T12:54:45.103Z,70
2024-03-02T12:56:46.024Z,70
2024-03-02T12:58:47.022Z,70
2024-03-02T13:00:48.121Z,70
2024-03-02T13:02:49.046Z,69
2024-03-02T13:04:50.117Z,69
2024-03-02T13:06:51.092Z,69
2024-03-02T13:08:52.058Z,68
2024-03-02T13:10:53.063Z,68
2024-03-02T13:12:54.070Z,67
2024-03-02T13:14:55.053Z,67
2024-03-02T13:16:56.073Z,66
2024-03-02T13:18:57.125Z,65
2024-03-02T13:20:58.104Z,64
2024-03-02T13:22:59.457Z,63
2024-03-02T13:25:00.085Z,63
2024-03-02T13:27:01.129Z,62
2024-03-02T13:29:02.025Z,62
2024-03-02T13:31:03.283Z,61
2024-03-02T13:33:04.212Z,61
2024-03-02T13:35:04.971Z,61
2024-03-02T13:37:06.264Z,61
2024-03-02T13:39:07.401Z,61
2024-03-02T13:41:08.085Z,61
2024-03-02T13:43:09.176Z,61
2024-03-02T13:45:10.037Z,62
2024-03-02T13:47:11.246Z,62
2024-03-02T13:49:11.939Z,62
2024-03-02T13:53:14.066Z,62
2024-03-02T13:55:15.117Z,62
2024-03-02T13:57:16.032Z,63
2024-03-02T13:59:16.972Z,63
2024-03-02T14:01:18.106Z,63
2024-03-02T14:03:19.001Z,63
2024-03-02T14:05:20.085Z,64
2024-03-02T14:07:21.001Z,64
2024-03-02T14:11:23.032Z,65
2024-03-02T14:13:24.017Z,65
2024-03-02T14:15:25.027Z,65
2024-03-02T14:17:26.057Z,66
2024-03-02T14:19:26.983Z,66
2024-03-02T14:21:28.046Z,67
2024-03-02T14:23:28.915Z,67
2024-03-02T14:25:30.027Z,68
2024-03-02T14:27:37.574Z,68
2024-03-02T14:29:32.032Z,69
2024-03-02T14:31:32.982Z,69
2024-03-02T14:33:34.205Z,69
2024-03-02T14:35:34.993Z,69
2024-03-02T14:37:36.015Z,69
2024-03-02T14:39:37.098Z,69
2024-03-02T14:41:38.067Z,69
2024-03-02T14:43:38.988Z,69
2024-03-02T14:45:40.018Z,69
2024-03-02T14:47:40.963Z,69
2024-03-02T14:49:42.114Z,69
2024-03-02T14:51:43.115Z,69
2024-03-02T14:53:43.977Z,70
2024-03-02T14:55:45.058Z,70
2024-03-02T14:57:46.359Z,70
2024-03-02T14:59:46.986Z,70
2024-03-02T15:01:47.914Z,70
2024-03-02T15:03:48.954Z,70
2024-03-02T15:05:50.034Z,70
2024-03-02T15:07:51.497Z,70
2024-03-02T15:09:52.050Z,70
2024-03-02T15:11:52.998Z,70
2024-03-02T15:13:53.927Z,70
2024-03-02T15:15:55.018Z,70
2024-03-02T15:17:56.246Z,70
2024-03-02T15:19:56.987Z,70
2024-03-02T15:21:57.970Z,70
2024-03-02T15:23:58.963Z,70
2024-03-02T15:26:00.001Z,70
2024-03-02T15:28:01.020Z,70
2024-03-02T15:30:02.029Z,70
2024-03-02T15:32:03.023Z,70
2024-03-02T15:34:04.095Z,70
2024-03-02T15:36:04.946Z,70
2024-03-02T15:38:07.716Z,70
2024-03-02T15:40:07.250Z,70
2024-03-02T15:42:08.027Z,70
2024-03-02T15:44:09.117Z,70
2024-03-02T15:46:09.953Z,71
2024-03-02T15:48:10.958Z,71
2024-03-02T15:50:11.922Z,71
2024-03-02T15:52:13.001Z,71
2024-03-02T15:54:13.969Z,71
2024-03-02T15:56:14.949Z,71
2024-03-02T15:58:16.038Z,71
2024-03-02T16:00:16.974Z,71
2024-03-02T16:02:17.989Z,72
2024-03-02T16:04:19.014Z,72
2024-03-02T16:06:19.922Z,72
2024-03-02T16:08:20.987Z,72
2024-03-02T16:10:21.928Z,72
2024-03-02T16:12:22.954Z,72
2024-03-02T16:14:23.997Z,72
2024-03-02T16:16:24.922Z,73
2024-03-02T16:18:25.972Z,73
2024-03-02T16:20:27.044Z,73
2024-03-02T16:22:27.991Z,73
2024-03-02T16:24:29.029Z,73
2024-03-02T16:26:29.920Z,73
2024-03-02T16:28:30.958Z,73
2024-03-02T16:30:31.989Z,73
2024-03-02T16:32:32.943Z,73
2024-03-02T16:34:34.010Z,73
2024-03-02T16:36:35.167Z,73
2024-03-02T16:38:35.924Z,73
2024-03-02T16:40:36.971Z,73
2024-03-02T16:42:37.905Z,73
2024-03-02T16:44:39.246Z,73
2024-03-02T16:46:39.988Z,73
2024-03-02T16:48:41.026Z,73
2024-03-02T16:50:42.011Z,73
2024-03-02T16:52:42.964Z,73
2024-03-02T16:54:44.041Z,73
2024-03-02T16:56:44.966Z,73
2024-03-02T16:58:46.015Z,73
2024-03-02T17:00:47.016Z,74
2024-03-02T17:02:47.962Z,74
2024-03-02T17:04:49.046Z,74
2024-03-02T17:06:50.079Z,74
2024-03-02T17:08:50.941Z,74
2024-03-02T17:10:52.085Z,74
2024-03-02T17:12:52.979Z,74
2024-03-02T17:14:53.977Z,74
2024-03-02T17:16:55.062Z,74
2024-03-02T17:18:56.066Z,74
2024-03-02T17:20:56.963Z,74
2024-03-02T17:22:58.004Z,75
2024-03-02T17:24:59.056Z,75
2024-03-02T17:26:59.976Z,75
2024-03-02T17:29:00.972Z,75
2024-03-02T17:31:01.947Z,75
2024-03-02T17:33:03.073Z,75
2024-03-02T17:35:03.941Z,75
2024-03-02T17:37:05.068Z,75
2024-03-02T17:39:06.012Z,75
2024-03-02T17:41:07.154Z,75
2024-03-02T17:43:08.043Z,75
2024-03-02T17:45:08.908Z,75
2024-03-02T17:47:09.956Z,75
2024-03-02T17:49:11.047Z,75
2024-03-02T17:51:11.987Z,75
2024-03-02T17:53:12.993Z,75
2024-03-02T17:55:13.920Z,76
2024-03-02T17:57:15.323Z,76
2024-03-02T17:59:16.004Z,76
2024-03-02T18:01:17.016Z,76
2024-03-02T18:03:17.916Z,77
2024-03-02T18:05:19.031Z,77
2024-03-02T18:07:19.963Z,77
2024-03-02T18:09:20.970Z,77
2024-03-02T18:11:21.890Z,78
2024-03-02T18:13:23.253Z,78
2024-03-02T18:15:24.186Z,78
2024-03-02T18:17:24.928Z,78
2024-03-02T18:19:25.928Z,78
2024-03-02T18:21:27.189Z,78
2024-03-02T18:23:28.013Z,78
2024-03-02T18:25:29.194Z,78
2024-03-02T18:27:30.076Z,78
2024-03-02T18:29:31.220Z,78
2024-03-02T18:31:32.073Z,78
2024-03-02T18:33:33.088Z,78
2024-03-02T18:35:34.334Z,79
2024-03-02T18:37:34.953Z,79
2024-03-02T18:39:35.975Z,79
2024-03-02T18:41:37.061Z,79
2024-03-02T18:43:37.979Z,79
2024-03-02T18:45:39.124Z,79
2024-03-02T18:47:40.061Z,79
2024-03-02T18:49:41.126Z,80
2024-03-02T18:51:41.920Z,80
2024-03-02T18:53:42.994Z,80
2024-03-02T18:55:44.015Z,80
2024-03-02T18:57:44.954Z,80
2024-03-02T18:59:45.878Z,80
2024-03-02T19:01:46.952Z,80
2024-03-02T19:03:47.952Z,80
2024-03-02T19:05:48.952Z,80
2024-03-02T19:07:49.884Z,80
2024-03-02T19:09:51.053Z,81
2024-03-02T19:11:51.981Z,81
2024-03-02T19:13:52.946Z,81
2024-03-02T19:15:54.091Z,81
2024-03-02T19:17:55.327Z,81
2024-03-02T19:19:56.418Z,82
2024-03-02T19:22:02.225Z,82
2024-03-02T19:23:57.951Z,82
2024-03-02T19:25:58.919Z,82
2024-03-02T19:27:59.855Z,82
2024-03-02T19:30:00.983Z,82
2024-03-02T19:32:05.117Z,82
2024-03-02T19:34:02.986Z,82
2024-03-02T19:36:04.385Z,82
2024-03-02T19:38:04.874Z,82
2024-03-02T19:40:06.102Z,82
2024-03-02T19:42:07.022Z,82
2024-03-02T19:44:07.895Z,82
2024-03-02T19:46:08.921Z,82
2024-03-02T19:48:09.814Z,82
2024-03-02T19:50:10.960Z,82
2024-03-02T19:52:11.955Z,82
2024-03-02T19:54:13.173Z,82
2024-03-02T19:56:13.861Z,82
2024-03-02T19:58:15.017Z,82
2024-03-02T20:00:15.880Z,82
2024-03-02T20:02:18.641Z,82
2024-03-02T20:04:18.966Z,82
2024-03-02T20:06:19.154Z,82
2024-03-02T20:08:20.293Z,82
2024-03-02T20:10:20.949Z,82
2024-03-02T20:12:21.983Z,81
2024-03-02T20:14:23.953Z,81
2024-03-02T20:16:24.050Z,81
2024-03-02T20:18:25.883Z,81
2024-03-02T20:20:25.982Z,81
2024-03-02T20:22:26.890Z,81
2024-03-02T20:24:27.918Z,81
2024-03-02T20:26:29.014Z,81
2024-03-02T20:28:29.916Z,81
2024-03-02T20:30:31.004Z,82
2024-03-02T20:32:31.915Z,82
2024-03-02T20:34:32.849Z,82
2024-03-02T20:36:33.968Z,82
2024-03-02T20:38:34.858Z,82
2024-03-02T20:40:35.812Z,82
2024-03-02T20:42:37.085Z,82
2024-03-02T20:44:37.949Z,82
2024-03-02T20:46:38.916Z,82
2024-03-02T20:48:39.951Z,82
2024-03-02T20:50:40.986Z,82
2024-03-02T20:52:41.909Z,82
2024-03-02T20:54:43.000Z,82
2024-03-02T20:56:43.892Z,82
2024-03-02T20:58:44.920Z,82
2024-03-02T21:00:46.151Z,82
2024-03-02T21:02:48.244Z,82
2024-03-02T21:04:48.050Z,83
2024-03-02T21:06:48.986Z,83
2024-03-02T21:08:49.908Z,83
2024-03-02T21:10:51.025Z,83
2024-03-02T21:12:51.939Z,83
2024-03-02T21:14:52.946Z,83
2024-03-02T21:16:53.956Z,83
2024-03-02T21:18:55.044Z,83
2024-03-02T21:20:56.000Z,83
2024-03-02T21:22:56.918Z,83
2024-03-02T21:24:58.035Z,83
2024-03-02T21:26:58.975Z,83
2024-03-02T21:28:59.964Z,83
2024-03-02T21:31:00.828Z,83
2024-03-02T21:33:01.935Z,83
2024-03-02T21:35:03.001Z,83
2024-03-02T21:37:03.910Z,83
2024-03-02T21:39:05.712Z,83
2024-03-02T21:41:05.977Z,83
2024-03-02T21:43:06.993Z,83
2024-03-02T21:45:07.984Z,83
2024-03-02T21:47:08.989Z,82
2024-03-02T21:49:10.025Z,82
2024-03-02T21:51:10.901Z,82
2024-03-02T21:53:11.891Z,82
2024-03-02T21:55:13.028Z,82
2024-03-02T21:57:13.915Z,82
2024-03-02T21:59:14.925Z,82
2024-03-02T22:01:15.967Z,82
2024-03-02T22:03:17.230Z,82
2024-03-02T22:05:17.938Z,82
2024-03-02T22:07:18.977Z,81
2024-03-02T22:09:20.058Z,81
2024-03-02T22:11:20.850Z,81
2024-03-02T22:13:22.168Z,81
2024-03-02T22:15:22.830Z,81
2024-03-02T22:17:24.030Z,81
2024-03-02T22:19:24.924Z,81
2024-03-02T22:21:26.291Z,82
2024-03-02T22:23:26.922Z,82
2024-03-02T22:25:27.965Z,82
2024-03-02T22:27:29.242Z,82
2024-03-02T22:29:29.902Z,82
2024-03-02T22:31:30.965Z,82
2024-03-02T22:33:31.969Z,82
2024-03-02T22:35:33.035Z,82
2024-03-02T22:37:33.989Z,82
2024-03-02T22:39:34.906Z,82
2024-03-02T22:41:35.884Z,82
2024-03-02T22:43:36.938Z,82
2024-03-02T22:45:37.956Z,81
2024-03-02T22:47:38.880Z,81
2024-03-02T22:49:39.938Z,81
2024-03-02T22:51:40.893Z,81
2024-03-02T22:53:41.931Z,81
2024-03-02T22:55:42.851Z,81
2024-03-02T22:57:44.019Z,81
2024-03-02T22:59:44.879Z,81
2024-03-02T23:01:46.076Z,81
2024-03-02T23:03:46.901Z,81
2024-03-02T23:05:48.223Z,81
2024-03-02T23:07:48.887Z,81
2024-03-02T23:09:50.161Z,81
2024-03-02T23:11:50.935Z,81
2024-03-02T23:13:51.970Z,81
2024-03-02T23:15:52.922Z,81
2024-03-02T23:17:53.887Z,81
2024-03-02T23:19:54.877Z,81
2024-03-02T23:21:57.073Z,81
2024-03-02T23:23:56.843Z,81
2024-03-02T23:25:57.849Z,81
2024-03-02T23:27:59.029Z,81
2024-03-02T23:29:59.832Z,81
2024-03-02T23:32:00.934Z,81
2024-03-02T23:34:02.265Z,81
2024-03-02T23:36:03.197Z,81
2024-03-02T23:38:03.872Z,81
2024-03-02T23:40:05.325Z,81
2024-03-02T23:42:06.367Z,81
2024-03-02T23:44:07.425Z,81
2024-03-02T23:46:08.012Z,81
2024-03-02T23:48:08.931Z,81
2024-03-02T23:50:10.026Z,81
2024-03-02T23:52:10.895Z,81
2024-03-02T23:54:11.962Z,81
2024-03-02T23:56:12.821Z,81
2024-03-02T23:58:13.875Z,81
